createdAt,value
2023-01-25T00:01:56.273Z,81.54
2023-01-25T00:04:24.395Z,81.92
2023-01-25T00:06:52.088Z,81.59
2023-01-25T00:09:20.059Z,82.05
2023-01-25T00:11:48.128Z,82.41
2023-01-25T00:14:16.614Z,81.82
2023-01-25T00:16:44.317Z,81.51
2023-01-25T00:19:13.384Z,81.62
2023-01-25T00:21:41.061Z,81.85
2023-01-25T00:24:10.161Z,81.70
2023-01-25T00:26:37.806Z,81.41
2023-01-25T00:29:05.483Z,81.81
2023-01-25T00:31:39.359Z,81.76
2023-01-25T00:34:11.597Z,81.60
2023-01-25T00:36:45.491Z,81.67
2023-01-25T00:39:14.001Z,81.84
2023-01-25T00:41:41.745Z,81.45
2023-01-25T00:44:09.375Z,81.76
2023-01-25T00:46:37.131Z,81.94
2023-01-25T00:49:04.642Z,81.78
2023-01-25T00:51:32.139Z,81.61
2023-01-25T00:54:01.054Z,81.92
2023-01-25T00:56:28.851Z,81.86
2023-01-25T00:58:56.414Z,81.83
2023-01-25T01:01:23.988Z,82.02
2023-01-25T01:03:53.093Z,81.97
2023-01-25T01:06:20.817Z,81.86
2023-01-25T01:08:48.529Z,81.90
2023-01-25T01:11:17.393Z,82.28
2023-01-25T01:13:44.950Z,82.49
2023-01-25T01:16:13.510Z,82.34
2023-01-25T01:18:43.228Z,82.59
2023-01-25T01:21:11.737Z,82.63
2023-01-25T01:23:39.632Z,82.53
2023-01-25T01:26:09.392Z,82.59
2023-01-25T01:28:39.313Z,82.64
2023-01-25T01:31:09.088Z,83.03
2023-01-25T01:33:36.826Z,82.78
2023-01-25T01:36:08.197Z,82.33
2023-01-25T01:38:35.731Z,82.57
2023-01-25T01:41:03.607Z,82.80
2023-01-25T01:43:31.966Z,82.45
2023-01-25T01:46:02.537Z,82.09
2023-01-25T01:48:34.405Z,82.13
2023-01-25T01:51:04.538Z,82.70
2023-01-25T01:53:33.732Z,82.87
2023-01-25T01:56:03.695Z,83.17
2023-01-25T01:58:32.162Z,82.23
2023-01-25T02:01:01.669Z,82.47
2023-01-25T02:03:29.957Z,82.53
2023-01-25T02:06:02.364Z,82.73
2023-01-25T02:08:31.689Z,82.72
2023-01-25T02:10:59.850Z,83.25
2023-01-25T02:13:28.019Z,83.10
2023-01-25T02:15:56.406Z,83.36
2023-01-25T02:18:25.817Z,82.65
2023-01-25T02:20:54.475Z,82.80
2023-01-25T02:23:26.771Z,83.07
2023-01-25T02:25:56.163Z,83.47
2023-01-25T02:28:26.356Z,83.13
2023-01-25T02:30:54.118Z,82.93
2023-01-25T02:33:24.334Z,83.03
2023-01-25T02:35:56.150Z,83.63
2023-01-25T02:38:23.682Z,83.15
2023-01-25T02:40:55.192Z,83.33
2023-01-25T02:43:23.926Z,84.04
2023-01-25T02:45:55.754Z,83.75
2023-01-25T02:48:23.274Z,84.03
2023-01-25T02:50:50.765Z,83.67
2023-01-25T02:53:18.258Z,83.43
2023-01-25T02:55:45.769Z,83.92
2023-01-25T02:58:14.602Z,83.60
2023-01-25T03:00:42.185Z,83.24
2023-01-25T03:03:09.708Z,83.73
2023-01-25T03:05:37.226Z,83.62
2023-01-25T03:08:05.021Z,83.54
2023-01-25T03:10:32.493Z,83.80
2023-01-25T03:12:59.963Z,83.87
2023-01-25T03:15:29.285Z,83.93
2023-01-25T03:17:56.935Z,83.90
2023-01-25T03:20:24.422Z,83.89
2023-01-25T03:22:51.921Z,84.10
2023-01-25T03:25:19.389Z,83.91
2023-01-25T03:27:46.897Z,83.83
2023-01-25T03:30:14.525Z,84.13
2023-01-25T03:32:43.407Z,84.46
2023-01-25T03:35:10.939Z,84.06
2023-01-25T03:37:38.473Z,84.11
2023-01-25T03:40:07.297Z,84.10
2023-01-25T03:42:34.911Z,84.44
2023-01-25T03:45:02.432Z,84.88
2023-01-25T03:47:29.949Z,84.34
2023-01-25T03:49:58.773Z,84.83
2023-01-25T03:52:27.327Z,84.97
2023-01-25T03:54:54.789Z,84.70
2023-01-25T03:57:22.270Z,85.07
2023-01-25T03:59:49.781Z,84.53
2023-01-25T04:02:17.341Z,84.93
2023-01-25T04:04:44.840Z,85.09
2023-01-25T04:07:13.668Z,85.11
2023-01-25T04:09:41.110Z,84.64
2023-01-25T04:12:08.722Z,85.36
2023-01-25T04:14:44.243Z,85.15
2023-01-25T04:17:12.900Z,84.80
2023-01-25T04:19:40.565Z,85.19
2023-01-25T04:22:08.909Z,85.06
2023-01-25T04:24:37.800Z,85.34
2023-01-25T04:27:05.454Z,85.48
2023-01-25T04:29:41.184Z,85.62
2023-01-25T04:32:09.512Z,85.71
2023-01-25T04:34:37.111Z,85.79
2023-01-25T04:37:04.666Z,85.71
2023-01-25T04:39:32.211Z,85.63
2023-01-25T04:42:01.048Z,85.85
2023-01-25T04:44:28.617Z,86.45
2023-01-25T04:46:56.131Z,85.39
2023-01-25T04:49:23.622Z,85.78
2023-01-25T04:51:51.155Z,85.49
2023-01-25T04:54:18.665Z,85.16
2023-01-25T04:56:46.184Z,85.23
2023-01-25T04:59:15.060Z,85.27
2023-01-25T05:01:42.595Z,85.63
2023-01-25T05:04:10.117Z,85.12
2023-01-25T05:06:37.674Z,84.90
2023-01-25T05:09:05.234Z,85.26
2023-01-25T05:11:32.766Z,85.38
2023-01-25T05:14:00.310Z,85.30
2023-01-25T05:16:29.219Z,85.16
2023-01-25T05:18:57.013Z,85.86
2023-01-25T05:21:44.619Z,85.24
2023-01-25T05:24:12.569Z,85.20
2023-01-25T05:26:57.930Z,85.57
2023-01-25T05:29:25.452Z,85.99
2023-01-25T05:31:54.672Z,85.36
2023-01-25T05:34:22.261Z,85.46
2023-01-25T05:36:49.929Z,85.33
2023-01-25T05:39:17.424Z,85.38
2023-01-25T05:41:45.018Z,85.09
2023-01-25T05:44:12.703Z,84.76
2023-01-25T05:46:40.241Z,84.66
2023-01-25T05:49:09.272Z,84.80
2023-01-25T05:51:38.326Z,84.50
2023-01-25T05:54:06.448Z,84.68
2023-01-25T05:56:33.940Z,84.47
2023-01-25T05:59:02.399Z,84.84
2023-01-25T06:01:29.982Z,85.08
2023-01-25T06:03:57.850Z,85.04
2023-01-25T06:06:26.792Z,85.18
2023-01-25T06:08:54.347Z,85.48
2023-01-25T06:11:23.895Z,85.53
2023-01-25T06:13:51.910Z,85.71
2023-01-25T06:16:20.395Z,85.66
2023-01-25T06:18:47.921Z,85.86
2023-01-25T06:21:15.482Z,85.99
2023-01-25T06:23:45.382Z,86.12
2023-01-25T06:26:14.618Z,86.01
2023-01-25T06:28:42.633Z,85.94
2023-01-25T06:31:11.570Z,86.43
2023-01-25T06:33:39.514Z,86.55
2023-01-25T06:36:09.122Z,85.62
2023-01-25T06:38:36.612Z,85.31
2023-01-25T06:41:07.649Z,85.42
2023-01-25T06:43:36.007Z,85.91
2023-01-25T06:46:05.281Z,86.44
2023-01-25T06:48:33.341Z,86.11
2023-01-25T06:51:02.327Z,85.59
2023-01-25T06:53:31.434Z,85.50
2023-01-25T06:56:00.228Z,85.63
2023-01-25T06:58:30.185Z,85.08
2023-01-25T07:01:01.398Z,85.62
2023-01-25T07:03:28.980Z,85.78
2023-01-25T07:06:00.184Z,86.01
2023-01-25T07:08:27.931Z,85.96
2023-01-25T07:10:56.460Z,86.24
2023-01-25T07:13:24.244Z,86.02
2023-01-25T07:15:57.560Z,86.21
2023-01-25T07:18:25.437Z,86.58
2023-01-25T07:20:53.300Z,87.27
2023-01-25T07:23:21.259Z,86.52
2023-01-25T07:25:50.838Z,86.50
2023-01-25T07:28:18.591Z,86.43
2023-01-25T07:30:47.038Z,86.15
2023-01-25T07:33:15.913Z,86.11
2023-01-25T07:35:43.533Z,86.83
2023-01-25T07:38:12.417Z,86.50
2023-01-25T07:40:40.783Z,86.95
2023-01-25T07:43:08.257Z,86.92
2023-01-25T07:45:35.797Z,87.23
2023-01-25T07:48:09.888Z,86.95
2023-01-25T07:50:39.454Z,86.75
2023-01-25T07:53:06.906Z,86.97
2023-01-25T07:55:34.612Z,86.68
2023-01-25T07:58:02.112Z,87.32
2023-01-25T08:00:29.745Z,87.37
2023-01-25T08:02:57.194Z,87.21
2023-01-25T08:05:25.380Z,87.22
2023-01-25T08:07:54.169Z,87.44
2023-01-25T08:10:21.793Z,87.30
2023-01-25T08:12:49.243Z,86.87
2023-01-25T08:15:16.705Z,87.04
2023-01-25T08:17:44.137Z,87.24
2023-01-25T08:20:13.941Z,86.84
2023-01-25T08:22:41.425Z,87.12
2023-01-25T08:25:11.106Z,87.18
2023-01-25T08:27:38.744Z,87.13
2023-01-25T08:30:07.179Z,86.88
2023-01-25T08:32:37.325Z,87.01
2023-01-25T08:35:06.939Z,86.64
2023-01-25T08:37:34.820Z,86.65
2023-01-25T08:40:02.401Z,86.27
2023-01-25T08:42:31.205Z,86.75
2023-01-25T08:44:58.737Z,86.37
2023-01-25T08:47:26.691Z,86.30
2023-01-25T08:49:55.275Z,86.10
2023-01-25T08:52:23.070Z,86.16
2023-01-25T08:54:50.642Z,86.24
2023-01-25T08:57:18.275Z,86.39
2023-01-25T08:59:47.706Z,86.28
2023-01-25T09:02:15.222Z,86.59
2023-01-25T09:04:42.715Z,86.58
2023-01-25T09:07:10.212Z,85.95
2023-01-25T09:09:37.697Z,85.77
2023-01-25T09:12:05.979Z,85.40
2023-01-25T09:14:33.511Z,86.02
2023-01-25T09:17:02.346Z,85.88
2023-01-25T09:19:29.852Z,85.05
2023-01-25T09:21:57.366Z,85.45
2023-01-25T09:24:24.876Z,85.71
2023-01-25T09:26:59.365Z,86.26
2023-01-25T09:29:27.775Z,86.35
2023-01-25T09:31:55.346Z,86.24
2023-01-25T09:34:24.241Z,86.67
2023-01-25T09:36:51.736Z,86.65
2023-01-25T09:39:20.658Z,86.45
2023-01-25T09:42:15.008Z,86.22
2023-01-25T09:44:54.853Z,85.94
2023-01-25T09:47:27.160Z,86.20
2023-01-25T09:50:20.060Z,86.28
2023-01-25T09:53:07.751Z,86.25
2023-01-25T09:55:35.383Z,85.52
2023-01-25T09:58:04.284Z,85.85
2023-01-25T10:00:35.433Z,85.67
2023-01-25T10:03:04.990Z,86.17
2023-01-25T10:05:37.849Z,86.13
2023-01-25T10:08:08.479Z,86.49
2023-01-25T10:10:39.239Z,86.75
2023-01-25T10:13:10.846Z,86.33
2023-01-25T10:15:41.382Z,86.43
2023-01-25T10:18:19.160Z,85.98
2023-01-25T10:20:53.123Z,86.18
2023-01-25T10:23:32.108Z,85.78
2023-01-25T10:26:00.586Z,85.61
2023-01-25T10:28:35.279Z,85.42
2023-01-25T10:31:06.053Z,85.96
2023-01-25T10:33:38.012Z,85.36
2023-01-25T10:36:08.323Z,85.56
2023-01-25T10:38:38.691Z,86.06
2023-01-25T10:41:09.010Z,85.60
2023-01-25T10:43:36.459Z,85.00
2023-01-25T10:46:04.141Z,84.88
2023-01-25T10:48:35.394Z,85.76
2023-01-25T10:51:02.928Z,85.95
2023-01-25T10:53:34.195Z,85.61
2023-01-25T10:56:23.057Z,85.41
2023-01-25T10:58:52.062Z,85.25
2023-01-25T11:01:27.367Z,85.32
2023-01-25T11:03:54.908Z,84.81
2023-01-25T11:06:34.039Z,85.75
2023-01-25T11:09:03.558Z,85.57
2023-01-25T11:11:40.518Z,84.68
2023-01-25T11:14:16.997Z,85.46
2023-01-25T11:16:47.254Z,84.87
2023-01-25T11:19:27.724Z,84.60
2023-01-25T11:21:57.728Z,84.22
2023-01-25T11:24:29.480Z,84.73
2023-01-25T11:27:14.353Z,84.48
2023-01-25T11:29:41.865Z,85.26
2023-01-25T11:32:20.313Z,84.60
2023-01-25T11:34:48.308Z,84.84
2023-01-25T11:37:26.405Z,85.21
2023-01-25T11:40:02.327Z,86.00
2023-01-25T11:42:35.334Z,86.08
2023-01-25T11:45:17.683Z,84.83
2023-01-25T11:47:55.765Z,84.87
2023-01-25T11:50:29.263Z,84.99
2023-01-25T11:53:04.472Z,84.84
2023-01-25T11:55:40.918Z,85.12
2023-01-25T11:58:19.176Z,85.56
2023-01-25T12:00:55.793Z,85.42
2023-01-25T12:03:37.869Z,85.60
2023-01-25T12:06:11.602Z,85.51
2023-01-25T12:08:48.475Z,85.19
2023-01-25T12:11:29.358Z,85.54
2023-01-25T12:14:02.543Z,85.70
2023-01-25T12:16:44.057Z,86.33
2023-01-25T12:19:25.001Z,86.10
2023-01-25T12:22:14.342Z,86.75
2023-01-25T12:24:46.106Z,86.72
2023-01-25T12:27:26.132Z,86.92
2023-01-25T12:29:57.749Z,87.27
2023-01-25T12:32:28.065Z,86.92
2023-01-25T12:35:04.499Z,87.60
2023-01-25T12:37:35.406Z,88.13
2023-01-25T12:40:06.264Z,88.03
2023-01-25T12:42:37.739Z,87.43
2023-01-25T12:45:11.220Z,87.42
2023-01-25T12:47:41.747Z,87.55
2023-01-25T12:50:15.685Z,88.01
2023-01-25T12:52:47.220Z,88.09
2023-01-25T12:55:17.121Z,88.57
2023-01-25T12:57:53.291Z,87.60
2023-01-25T13:00:24.099Z,87.84
2023-01-25T13:03:00.581Z,87.44
2023-01-25T13:05:30.760Z,87.54
2023-01-25T13:08:06.667Z,87.48
2023-01-25T13:10:36.954Z,87.97
2023-01-25T13:13:21.411Z,87.84
2023-01-25T13:15:49.577Z,87.95
2023-01-25T13:18:36.527Z,87.91
2023-01-25T13:21:06.379Z,88.16
2023-01-25T13:23:35.375Z,88.46
2023-01-25T13:26:44.425Z,88.22
2023-01-25T13:29:51.739Z,88.45
2023-01-25T13:33:04.521Z,87.74
2023-01-25T13:35:41.754Z,88.13
2023-01-25T13:38:32.194Z,87.93
2023-01-25T13:41:12.926Z,88.53
2023-01-25T13:43:45.436Z,88.52
2023-01-25T13:46:16.404Z,88.32
2023-01-25T13:48:53.715Z,88.03
2023-01-25T13:51:24.073Z,88.59
2023-01-25T13:53:59.001Z,88.07
2023-01-25T13:56:29.331Z,88.98
2023-01-25T13:58:56.963Z,88.43
2023-01-25T14:01:24.517Z,88.55
2023-01-25T14:03:54.967Z,88.13
2023-01-25T14:06:26.299Z,87.96
2023-01-25T14:08:56.415Z,88.08
2023-01-25T14:11:25.645Z,88.10
2023-01-25T14:13:57.923Z,88.35
2023-01-25T14:16:27.392Z,88.25
2023-01-25T14:18:55.053Z,88.14
2023-01-25T14:21:24.233Z,88.66
2023-01-25T14:23:52.794Z,88.50
2023-01-25T14:26:23.095Z,88.22
2023-01-25T14:29:01.237Z,88.18
2023-01-25T14:31:32.749Z,88.19
2023-01-25T14:34:02.446Z,89.27
2023-01-25T14:36:33.125Z,88.24
2023-01-25T14:39:03.184Z,88.21
2023-01-25T14:41:33.785Z,88.21
2023-01-25T14:44:03.843Z,88.12
2023-01-25T14:46:33.110Z,87.44
2023-01-25T14:49:25.175Z,87.46
2023-01-25T14:51:58.747Z,87.15
2023-01-25T14:54:27.745Z,87.54
2023-01-25T14:56:57.426Z,87.86
2023-01-25T14:59:28.640Z,87.98
2023-01-25T15:01:57.814Z,87.51
2023-01-25T15:04:25.567Z,87.39
2023-01-25T15:06:57.404Z,87.51
2023-01-25T15:09:38.171Z,87.94
2023-01-25T15:12:23.008Z,88.08
2023-01-25T15:14:52.022Z,88.69
2023-01-25T15:17:42.954Z,88.18
2023-01-25T15:20:35.431Z,88.08
2023-01-25T15:23:29.720Z,88.27
2023-01-25T15:25:58.736Z,87.86
2023-01-25T15:28:27.785Z,88.05
2023-01-25T15:30:57.529Z,88.59
2023-01-25T15:33:26.836Z,88.06
2023-01-25T15:35:54.828Z,88.37
2023-01-25T15:38:24.957Z,88.84
2023-01-25T15:40:52.571Z,89.02
2023-01-25T15:43:20.812Z,89.21
2023-01-25T15:45:50.033Z,89.08
2023-01-25T15:48:19.646Z,89.10
2023-01-25T15:50:47.214Z,88.95
2023-01-25T15:53:16.086Z,88.82
2023-01-25T15:55:46.249Z,89.27
2023-01-25T15:58:17.572Z,88.51
2023-01-25T16:00:45.077Z,88.43
2023-01-25T16:03:12.958Z,88.27
2023-01-25T16:05:40.480Z,88.27
2023-01-25T16:08:08.279Z,88.31
2023-01-25T16:10:35.764Z,88.52
2023-01-25T16:13:04.648Z,88.91
2023-01-25T16:15:32.146Z,89.25
2023-01-25T16:17:59.884Z,89.24
2023-01-25T16:20:27.414Z,89.21
2023-01-25T16:22:54.912Z,89.08
2023-01-25T16:25:22.425Z,89.34
2023-01-25T16:27:50.462Z,88.31
2023-01-25T16:30:23.952Z,88.05
2023-01-25T16:32:52.622Z,87.62
2023-01-25T16:35:20.687Z,87.53
2023-01-25T16:37:48.412Z,86.94
2023-01-25T16:40:24.579Z,87.39
2023-01-25T16:42:52.355Z,87.04
2023-01-25T16:45:21.256Z,87.26
2023-01-25T16:47:49.933Z,87.68
2023-01-25T16:50:18.783Z,87.18
2023-01-25T16:52:49.039Z,87.69
2023-01-25T16:55:17.374Z,88.55
2023-01-25T16:57:45.840Z,88.93
2023-01-25T17:00:14.814Z,88.62
2023-01-25T17:02:58.221Z,89.25
2023-01-25T17:05:32.847Z,89.01
2023-01-25T17:08:00.567Z,89.39
2023-01-25T17:10:28.913Z,89.21
2023-01-25T17:12:56.627Z,88.44
2023-01-25T17:15:24.178Z,88.30
2023-01-25T17:17:53.177Z,87.52
2023-01-25T17:20:20.897Z,87.80
2023-01-25T17:22:51.134Z,88.42
2023-01-25T17:25:19.079Z,88.72
2023-01-25T17:27:46.965Z,88.87
2023-01-25T17:30:15.533Z,88.68
2023-01-25T17:32:43.333Z,88.30
2023-01-25T17:35:12.326Z,88.12
2023-01-25T17:37:41.175Z,88.73
2023-01-25T17:40:11.291Z,89.16
2023-01-25T17:42:39.222Z,88.63
2023-01-25T17:45:08.462Z,88.29
2023-01-25T17:47:36.331Z,88.08
2023-01-25T17:50:03.972Z,87.75
2023-01-25T17:52:33.047Z,87.76
2023-01-25T17:55:00.731Z,88.54
2023-01-25T17:57:31.250Z,88.78
2023-01-25T17:59:59.110Z,88.74
2023-01-25T18:02:26.703Z,88.29
2023-01-25T18:04:54.389Z,88.56
2023-01-25T18:07:22.264Z,88.27
2023-01-25T18:09:51.252Z,88.00
2023-01-25T18:12:20.508Z,87.76
2023-01-25T18:14:48.485Z,88.66
2023-01-25T18:17:17.237Z,88.77
2023-01-25T18:19:45.970Z,87.91
2023-01-25T18:22:13.934Z,88.33
2023-01-25T18:24:42.642Z,88.72
2023-01-25T18:27:19.363Z,88.35
2023-01-25T18:29:50.460Z,88.42
2023-01-25T18:32:18.031Z,88.96
2023-01-25T18:34:46.774Z,89.28
2023-01-25T18:37:20.761Z,88.10
2023-01-25T18:39:49.835Z,88.00
2023-01-25T18:42:19.311Z,89.14
2023-01-25T18:44:48.441Z,89.82
2023-01-25T18:47:18.634Z,89.08
2023-01-25T18:49:46.780Z,89.42
2023-01-25T18:52:14.394Z,87.97
2023-01-25T18:54:41.942Z,87.85
2023-01-25T18:57:10.717Z,87.88
2023-01-25T18:59:40.132Z,88.02
2023-01-25T19:02:08.372Z,88.22
2023-01-25T19:04:35.978Z,88.15
2023-01-25T19:07:04.063Z,88.65
2023-01-25T19:09:31.837Z,88.60
2023-01-25T19:11:59.862Z,88.22
2023-01-25T19:14:27.692Z,88.78
2023-01-25T19:16:56.812Z,89.04
2023-01-25T19:19:24.637Z,88.21
2023-01-25T19:21:52.223Z,88.91
2023-01-25T19:24:20.854Z,90.04
2023-01-25T19:26:48.601Z,89.94
2023-01-25T19:29:16.459Z,90.24
2023-01-25T19:31:44.092Z,90.62
2023-01-25T19:34:13.021Z,91.05
2023-01-25T19:36:45.678Z,90.61
2023-01-25T19:39:13.303Z,90.50
2023-01-25T19:41:41.081Z,90.07
2023-01-25T19:44:11.620Z,89.91
2023-01-25T19:46:39.533Z,89.10
2023-01-25T19:49:08.919Z,88.84
2023-01-25T19:51:39.704Z,87.49
2023-01-25T19:54:08.868Z,88.28
2023-01-25T19:56:38.885Z,89.00
2023-01-25T19:59:08.453Z,89.55
2023-01-25T20:01:36.572Z,89.78
2023-01-25T20:04:06.266Z,90.14
2023-01-25T20:06:34.125Z,89.39
2023-01-25T20:09:05.651Z,89.32
2023-01-25T20:11:34.635Z,89.27
2023-01-25T20:14:04.140Z,89.36
2023-01-25T20:16:32.292Z,87.61
2023-01-25T20:19:00.755Z,87.49
2023-01-25T20:21:33.808Z,87.71
2023-01-25T20:24:05.640Z,88.01
2023-01-25T20:26:36.545Z,88.52
2023-01-25T20:29:04.923Z,89.05
2023-01-25T20:31:34.443Z,89.85
2023-01-25T20:34:03.616Z,89.00
2023-01-25T20:36:32.747Z,89.98
2023-01-25T20:39:00.396Z,90.34
2023-01-25T20:41:29.561Z,89.10
2023-01-25T20:44:00.762Z,89.46
2023-01-25T20:46:29.408Z,89.60
2023-01-25T20:48:57.198Z,90.18
2023-01-25T20:51:24.789Z,90.10
2023-01-25T20:53:54.469Z,90.79
2023-01-25T20:56:22.713Z,91.44
2023-01-25T20:58:51.847Z,90.97
2023-01-25T21:01:20.958Z,90.85
2023-01-25T21:03:49.329Z,91.21
2023-01-25T21:06:17.394Z,91.56
2023-01-25T21:08:45.392Z,91.65
2023-01-25T21:11:13.419Z,91.80
2023-01-25T21:13:41.241Z,91.63
2023-01-25T21:16:13.105Z,91.38
2023-01-25T21:18:42.212Z,91.45
2023-01-25T21:21:12.258Z,90.11
2023-01-25T21:23:41.829Z,89.58
2023-01-25T21:26:11.928Z,89.33
2023-01-25T21:28:39.645Z,89.65
2023-01-25T21:31:13.464Z,89.57
2023-01-25T21:33:41.611Z,90.34
2023-01-25T21:36:11.498Z,90.21
2023-01-25T21:38:39.845Z,90.28
2023-01-25T21:41:12.103Z,90.21
2023-01-25T21:43:53.635Z,90.61
2023-01-25T21:46:26.328Z,90.52
2023-01-25T21:49:11.982Z,90.19
2023-01-25T21:51:46.880Z,90.23
2023-01-25T21:54:15.487Z,90.16
2023-01-25T21:56:43.173Z,90.77
2023-01-25T21:59:10.758Z,90.68
2023-01-25T22:01:40.519Z,90.45
2023-01-25T22:04:08.075Z,90.49
2023-01-25T22:06:35.740Z,90.27
2023-01-25T22:09:04.244Z,90.23
2023-01-25T22:11:32.281Z,90.27
2023-01-25T22:14:01.049Z,90.49
2023-01-25T22:16:30.279Z,89.91
2023-01-25T22:19:00.084Z,90.54
2023-01-25T22:21:30.725Z,89.96
2023-01-25T22:23:58.935Z,89.75
2023-01-25T22:26:27.905Z,89.88
2023-01-25T22:28:56.871Z,89.77
2023-01-25T22:31:25.822Z,89.48
2023-01-25T22:33:55.408Z,89.53
2023-01-25T22:36:26.091Z,89.11
2023-01-25T22:38:53.740Z,89.59
2023-01-25T22:41:22.762Z,89.13
2023-01-25T22:43:50.526Z,90.40
2023-01-25T22:46:19.806Z,90.74
2023-01-25T22:48:47.628Z,91.30
2023-01-25T22:51:17.252Z,91.25
2023-01-25T22:53:46.322Z,91.95
2023-01-25T22:56:15.291Z,92.45
2023-01-25T22:58:44.599Z,91.97
2023-01-25T23:01:13.771Z,91.93
2023-01-25T23:03:41.580Z,92.13
2023-01-25T23:06:11.600Z,92.60
2023-01-25T23:08:39.584Z,92.23
2023-01-25T23:11:10.008Z,91.63
2023-01-25T23:13:37.652Z,91.77
2023-01-25T23:16:06.537Z,91.45
2023-01-25T23:18:51.801Z,91.24
2023-01-25T23:21:20.958Z,90.61
2023-01-25T23:23:48.734Z,90.40
2023-01-25T23:26:17.733Z,90.25
2023-01-25T23:28:50.629Z,90.06
2023-01-25T23:31:18.587Z,90.34
2023-01-25T23:33:46.640Z,90.74
2023-01-25T23:36:15.862Z,89.94
2023-01-25T23:38:44.225Z,89.96
2023-01-25T23:41:11.724Z,90.64
2023-01-25T23:43:40.930Z,90.39
2023-01-25T23:46:08.859Z,89.53
2023-01-25T23:48:36.822Z,90.09
2023-01-25T23:51:04.546Z,90.00
2023-01-25T23:53:32.391Z,90.25
2023-01-25T23:56:02.015Z,90.49
2023-01-25T23:58:30.152Z,90.63
